sensor_id;sensor_type;location;lat;lon;timestamp;P1;durP1;ratioP1;P2;durP2;ratioP2
55218;SDS011;65463;43.864;20.136;2024-01-15T00:00:00;206.48;;;68.65;;
55218;SDS011;65463;43.864;20.136;2024-01-15T00:02:26;268.85;;;80.47;;
55218;SDS011;65463;43.864;20.136;2024-01-15T00:04:52;255.98;;;76.50;;
55218;SDS011;65463;43.864;20.136;2024-01-15T00:07:18;233.88;;;74.00;;
55218;SDS011;65463;43.864;20.136;2024-01-15T00:09:45;211.45;;;74.95;;
55218;SDS011;65463;43.864;20.136;2024-01-15T00:12:11;192.07;;;71.47;;
55218;SDS011;65463;43.864;20.136;2024-01-15T00:14:37;215.38;;;75.07;;
55218;SDS011;65463;43.864;20.136;2024-01-15T00:17:03;239.20;;;76.28;;
55218;SDS011;65463;43.864;20.136;2024-01-15T00:19:30;210.15;;;77.40;;
55218;SDS011;65463;43.864;20.136;2024-01-15T00:21:57;214.40;;;76.68;;
55218;SDS011;65463;43.864;20.136;2024-01-15T00:24:28;207.93;;;74.97;;
55218;SDS011;65463;43.864;20.136;2024-01-15T00:26:54;198.25;;;77.93;;
55218;SDS011;65463;43.864;20.136;2024-01-15T00:29:23;214.43;;;77.53;;
55218;SDS011;65463;43.864;20.136;2024-01-15T00:31:49;207.68;;;76.65;;
55218;SDS011;65463;43.864;20.136;2024-01-15T00:34:15;205.70;;;76.45;;
55218;SDS011;65463;43.864;20.136;2024-01-15T00:36:49;221.85;;;78.20;;
55218;SDS011;65463;43.864;20.136;2024-01-15T00:39:15;220.93;;;76.65;;
55218;SDS011;65463;43.864;20.136;2024-01-15T00:41:41;202.68;;;76.22;;
55218;SDS011;65463;43.864;20.136;2024-01-15T00:44:08;216.88;;;77.43;;
55218;SDS011;65463;43.864;20.136;2024-01-15T00:46:41;204.55;;;76.72;;
55218;SDS011;65463;43.864;20.136;2024-01-15T00:49:07;219.88;;;78.60;;
55218;SDS011;65463;43.864;20.136;2024-01-15T00:51:33;232.82;;;79.65;;
55218;SDS011;65463;43.864;20.136;2024-01-15T00:54:00;224.65;;;77.07;;
55218;SDS011;65463;43.864;20.136;2024-01-15T00:56:26;232.30;;;77.43;;
55218;SDS011;65463;43.864;20.136;2024-01-15T00:58:52;233.50;;;79.57;;
55218;SDS011;65463;43.864;20.136;2024-01-15T01:01:18;248.98;;;83.20;;
55218;SDS011;65463;43.864;20.136;2024-01-15T01:03:44;220.98;;;73.45;;
55218;SDS011;65463;43.864;20.136;2024-01-15T01:06:10;276.48;;;72.72;;
55218;SDS011;65463;43.864;20.136;2024-01-15T01:08:39;261.38;;;74.00;;
55218;SDS011;65463;43.864;20.136;2024-01-15T01:11:05;263.17;;;78.85;;
55218;SDS011;65463;43.864;20.136;2024-01-15T01:13:32;348.77;;;84.75;;
55218;SDS011;65463;43.864;20.136;2024-01-15T01:15:58;308.30;;;85.85;;
55218;SDS011;65463;43.864;20.136;2024-01-15T01:18:24;357.00;;;93.18;;
55218;SDS011;65463;43.864;20.136;2024-01-15T01:20:53;321.85;;;91.13;;
55218;SDS011;65463;43.864;20.136;2024-01-15T01:23:22;302.27;;;83.15;;
55218;SDS011;65463;43.864;20.136;2024-01-15T01:25:48;235.18;;;74.35;;
55218;SDS011;65463;43.864;20.136;2024-01-15T01:28:14;262.77;;;82.47;;
55218;SDS011;65463;43.864;20.136;2024-01-15T01:30:42;242.75;;;77.50;;
55218;SDS011;65463;43.864;20.136;2024-01-15T01:33:09;220.93;;;72.18;;
55218;SDS011;65463;43.864;20.136;2024-01-15T01:35:35;261.98;;;75.38;;
55218;SDS011;65463;43.864;20.136;2024-01-15T01:38:01;230.80;;;75.20;;
55218;SDS011;65463;43.864;20.136;2024-01-15T01:40:28;229.27;;;77.00;;
55218;SDS011;65463;43.864;20.136;2024-01-15T01:42:54;215.88;;;71.00;;
55218;SDS011;65463;43.864;20.136;2024-01-15T01:45:20;312.58;;;90.18;;
55218;SDS011;65463;43.864;20.136;2024-01-15T01:47:46;271.35;;;81.90;;
55218;SDS011;65463;43.864;20.136;2024-01-15T01:50:13;227.27;;;76.28;;
55218;SDS011;65463;43.864;20.136;2024-01-15T01:52:40;287.30;;;81.95;;
55218;SDS011;65463;43.864;20.136;2024-01-15T01:55:06;242.13;;;76.00;;
55218;SDS011;65463;43.864;20.136;2024-01-15T01:57:33;239.25;;;73.75;;
55218;SDS011;65463;43.864;20.136;2024-01-15T02:00:01;279.25;;;79.78;;
55218;SDS011;65463;43.864;20.136;2024-01-15T02:02:32;285.13;;;77.97;;
55218;SDS011;65463;43.864;20.136;2024-01-15T02:05:00;335.23;;;83.88;;
55218;SDS011;65463;43.864;20.136;2024-01-15T02:07:27;279.15;;;78.97;;
55218;SDS011;65463;43.864;20.136;2024-01-15T02:09:53;278.08;;;80.35;;
55218;SDS011;65463;43.864;20.136;2024-01-15T02:12:19;433.50;;;83.30;;
55218;SDS011;65463;43.864;20.136;2024-01-15T02:14:46;254.88;;;77.93;;
55218;SDS011;65463;43.864;20.136;2024-01-15T02:17:12;324.30;;;79.47;;
55218;SDS011;65463;43.864;20.136;2024-01-15T02:19:38;236.80;;;75.65;;
55218;SDS011;65463;43.864;20.136;2024-01-15T02:22:09;236.00;;;73.22;;
55218;SDS011;65463;43.864;20.136;2024-01-15T02:24:38;383.27;;;82.75;;
55218;SDS011;65463;43.864;20.136;2024-01-15T02:27:04;348.65;;;86.05;;
55218;SDS011;65463;43.864;20.136;2024-01-15T02:29:35;317.50;;;81.00;;
55218;SDS011;65463;43.864;20.136;2024-01-15T02:32:11;283.60;;;78.10;;
55218;SDS011;65463;43.864;20.136;2024-01-15T02:34:37;284.70;;;75.93;;
55218;SDS011;65463;43.864;20.136;2024-01-15T02:37:03;426.02;;;86.93;;
55218;SDS011;65463;43.864;20.136;2024-01-15T02:39:29;277.55;;;79.95;;
55218;SDS011;65463;43.864;20.136;2024-01-15T02:41:56;362.23;;;80.60;;
55218;SDS011;65463;43.864;20.136;2024-01-15T02:44:22;290.27;;;79.13;;
55218;SDS011;65463;43.864;20.136;2024-01-15T02:46:49;275.17;;;78.28;;
55218;SDS011;65463;43.864;20.136;2024-01-15T02:49:15;287.30;;;75.90;;
55218;SDS011;65463;43.864;20.136;2024-01-15T02:51:41;250.75;;;76.78;;
55218;SDS011;65463;43.864;20.136;2024-01-15T02:54:10;282.98;;;78.57;;
55218;SDS011;65463;43.864;20.136;2024-01-15T02:56:37;293.77;;;79.70;;
55218;SDS011;65463;43.864;20.136;2024-01-15T02:59:03;289.95;;;82.47;;
55218;SDS011;65463;43.864;20.136;2024-01-15T03:01:29;298.05;;;81.68;;
55218;SDS011;65463;43.864;20.136;2024-01-15T03:03:55;285.55;;;82.45;;
55218;SDS011;65463;43.864;20.136;2024-01-15T03:06:22;256.80;;;80.20;;
55218;SDS011;65463;43.864;20.136;2024-01-15T03:08:53;262.70;;;76.75;;
55218;SDS011;65463;43.864;20.136;2024-01-15T03:11:20;246.93;;;76.55;;
55218;SDS011;65463;43.864;20.136;2024-01-15T03:13:46;313.27;;;80.57;;
55218;SDS011;65463;43.864;20.136;2024-01-15T03:16:12;292.98;;;78.35;;
55218;SDS011;65463;43.864;20.136;2024-01-15T03:18:45;496.73;;;81.50;;
55218;SDS011;65463;43.864;20.136;2024-01-15T03:21:11;243.68;;;69.95;;
55218;SDS011;65463;43.864;20.136;2024-01-15T03:23:37;202.95;;;64.18;;
55218;SDS011;65463;43.864;20.136;2024-01-15T03:26:06;247.20;;;67.82;;
55218;SDS011;65463;43.864;20.136;2024-01-15T03:28:32;223.90;;;67.38;;
55218;SDS011;65463;43.864;20.136;2024-01-15T03:31:01;251.27;;;71.93;;
55218;SDS011;65463;43.864;20.136;2024-01-15T03:33:27;249.55;;;73.55;;
55218;SDS011;65463;43.864;20.136;2024-01-15T03:35:53;248.65;;;71.85;;
55218;SDS011;65463;43.864;20.136;2024-01-15T03:38:19;221.32;;;70.25;;
55218;SDS011;65463;43.864;20.136;2024-01-15T03:40:48;228.35;;;71.35;;
55218;SDS011;65463;43.864;20.136;2024-01-15T03:43:14;213.73;;;66.53;;
55218;SDS011;65463;43.864;20.136;2024-01-15T03:45:40;211.85;;;67.32;;
55218;SDS011;65463;43.864;20.136;2024-01-15T03:48:07;258.08;;;77.68;;
55218;SDS011;65463;43.864;20.136;2024-01-15T03:50:33;229.02;;;69.75;;
55218;SDS011;65463;43.864;20.136;2024-01-15T03:52:59;210.60;;;72.50;;
55218;SDS011;65463;43.864;20.136;2024-01-15T03:55:25;226.15;;;68.60;;
55218;SDS011;65463;43.864;20.136;2024-01-15T03:57:51;215.60;;;69.32;;
55218;SDS011;65463;43.864;20.136;2024-01-15T04:00:18;254.85;;;76.80;;
55218;SDS011;65463;43.864;20.136;2024-01-15T04:02:44;259.77;;;75.85;;
55218;SDS011;65463;43.864;20.136;2024-01-15T04:05:10;223.52;;;71.25;;
55218;SDS011;65463;43.864;20.136;2024-01-15T04:07:36;230.10;;;72.20;;
55218;SDS011;65463;43.864;20.136;2024-01-15T04:10:02;236.43;;;70.03;;
55218;SDS011;65463;43.864;20.136;2024-01-15T04:12:29;221.13;;;66.80;;
55218;SDS011;65463;43.864;20.136;2024-01-15T04:14:55;230.45;;;68.78;;
55218;SDS011;65463;43.864;20.136;2024-01-15T04:17:23;230.05;;;65.95;;
55218;SDS011;65463;43.864;20.136;2024-01-15T04:19:50;245.20;;;70.78;;
55218;SDS011;65463;43.864;20.136;2024-01-15T04:22:16;227.98;;;67.30;;
55218;SDS011;65463;43.864;20.136;2024-01-15T04:24:45;233.50;;;70.07;;
55218;SDS011;65463;43.864;20.136;2024-01-15T04:27:11;239.95;;;72.45;;
55218;SDS011;65463;43.864;20.136;2024-01-15T04:29:37;224.35;;;71.68;;
55218;SDS011;65463;43.864;20.136;2024-01-15T04:32:04;228.38;;;72.07;;
55218;SDS011;65463;43.864;20.136;2024-01-15T04:34:30;214.00;;;69.15;;
55218;SDS011;65463;43.864;20.136;2024-01-15T04:36:57;204.80;;;66.32;;
55218;SDS011;65463;43.864;20.136;2024-01-15T04:39:25;214.88;;;65.85;;
55218;SDS011;65463;43.864;20.136;2024-01-15T04:41:54;211.75;;;66.82;;
55218;SDS011;65463;43.864;20.136;2024-01-15T04:44:20;239.52;;;70.93;;
55218;SDS011;65463;43.864;20.136;2024-01-15T04:46:46;244.00;;;70.90;;
55218;SDS011;65463;43.864;20.136;2024-01-15T04:49:12;218.50;;;65.90;;
55218;SDS011;65463;43.864;20.136;2024-01-15T04:51:39;220.30;;;68.60;;
55218;SDS011;65463;43.864;20.136;2024-01-15T04:54:05;205.38;;;65.85;;
55218;SDS011;65463;43.864;20.136;2024-01-15T04:56:31;223.20;;;68.93;;
55218;SDS011;65463;43.864;20.136;2024-01-15T04:58:57;217.05;;;71.35;;
55218;SDS011;65463;43.864;20.136;2024-01-15T05:01:23;221.23;;;68.90;;
55218;SDS011;65463;43.864;20.136;2024-01-15T05:03:52;258.23;;;74.97;;
55218;SDS011;65463;43.864;20.136;2024-01-15T05:06:21;302.42;;;78.68;;
55218;SDS011;65463;43.864;20.136;2024-01-15T05:08:47;356.65;;;84.25;;
55218;SDS011;65463;43.864;20.136;2024-01-15T05:11:13;376.27;;;92.38;;
55218;SDS011;65463;43.864;20.136;2024-01-15T05:13:44;402.85;;;98.68;;
55218;SDS011;65463;43.864;20.136;2024-01-15T05:16:10;362.88;;;92.80;;
55218;SDS011;65463;43.864;20.136;2024-01-15T05:18:36;359.45;;;93.30;;
55218;SDS011;65463;43.864;20.136;2024-01-15T05:21:03;304.98;;;84.07;;
55218;SDS011;65463;43.864;20.136;2024-01-15T05:23:30;263.70;;;79.63;;
55218;SDS011;65463;43.864;20.136;2024-01-15T05:25:59;241.77;;;79.22;;
55218;SDS011;65463;43.864;20.136;2024-01-15T05:28:25;236.20;;;74.63;;
55218;SDS011;65463;43.864;20.136;2024-01-15T05:30:52;237.85;;;76.43;;
55218;SDS011;65463;43.864;20.136;2024-01-15T05:33:19;213.50;;;73.07;;
55218;SDS011;65463;43.864;20.136;2024-01-15T05:35:46;225.80;;;74.88;;
55218;SDS011;65463;43.864;20.136;2024-01-15T05:38:12;220.70;;;73.90;;
55218;SDS011;65463;43.864;20.136;2024-01-15T05:40:43;215.88;;;72.40;;
55218;SDS011;65463;43.864;20.136;2024-01-15T05:43:09;192.93;;;71.05;;
55218;SDS011;65463;43.864;20.136;2024-01-15T05:45:35;193.02;;;69.57;;
55218;SDS011;65463;43.864;20.136;2024-01-15T05:48:01;175.95;;;66.88;;
55218;SDS011;65463;43.864;20.136;2024-01-15T05:50:30;265.15;;;97.00;;
55218;SDS011;65463;43.864;20.136;2024-01-15T05:52:56;235.43;;;86.07;;
55218;SDS011;65463;43.864;20.136;2024-01-15T05:55:27;186.40;;;69.70;;
55218;SDS011;65463;43.864;20.136;2024-01-15T05:57:53;170.25;;;62.53;;
55218;SDS011;65463;43.864;20.136;2024-01-15T06:00:20;170.02;;;64.97;;
55218;SDS011;65463;43.864;20.136;2024-01-15T06:02:46;166.45;;;63.65;;
55218;SDS011;65463;43.864;20.136;2024-01-15T06:05:15;171.93;;;68.45;;
55218;SDS011;65463;43.864;20.136;2024-01-15T06:07:41;138.80;;;58.25;;
55218;SDS011;65463;43.864;20.136;2024-01-15T06:10:07;171.27;;;62.40;;
55218;SDS011;65463;43.864;20.136;2024-01-15T06:12:34;159.35;;;59.13;;
55218;SDS011;65463;43.864;20.136;2024-01-15T06:15:03;196.55;;;66.20;;
55218;SDS011;65463;43.864;20.136;2024-01-15T06:17:29;224.32;;;68.35;;
55218;SDS011;65463;43.864;20.136;2024-01-15T06:19:56;242.40;;;72.35;;
55218;SDS011;65463;43.864;20.136;2024-01-15T06:22:22;278.73;;;80.88;;
55218;SDS011;65463;43.864;20.136;2024-01-15T06:24:49;277.83;;;81.30;;
55218;SDS011;65463;43.864;20.136;2024-01-15T06:27:15;257.30;;;77.00;;
55218;SDS011;65463;43.864;20.136;2024-01-15T06:29:44;248.88;;;73.55;;
55218;SDS011;65463;43.864;20.136;2024-01-15T06:32:11;245.50;;;69.53;;
55218;SDS011;65463;43.864;20.136;2024-01-15T06:34:37;234.07;;;70.88;;
55218;SDS011;65463;43.864;20.136;2024-01-15T06:37:04;210.57;;;67.47;;
55218;SDS011;65463;43.864;20.136;2024-01-15T06:39:30;170.63;;;57.35;;
55218;SDS011;65463;43.864;20.136;2024-01-15T06:41:56;159.57;;;56.20;;
55218;SDS011;65463;43.864;20.136;2024-01-15T06:44:22;175.75;;;62.78;;
55218;SDS011;65463;43.864;20.136;2024-01-15T06:46:50;196.70;;;65.78;;
55218;SDS011;65463;43.864;20.136;2024-01-15T06:49:16;180.73;;;64.93;;
55218;SDS011;65463;43.864;20.136;2024-01-15T06:51:43;195.95;;;71.47;;
55218;SDS011;65463;43.864;20.136;2024-01-15T06:54:09;181.52;;;67.97;;
55218;SDS011;65463;43.864;20.136;2024-01-15T06:56:42;188.50;;;67.20;;
55218;SDS011;65463;43.864;20.136;2024-01-15T06:59:09;192.18;;;68.95;;
55218;SDS011;65463;43.864;20.136;2024-01-15T07:01:35;204.27;;;73.22;;
55218;SDS011;65463;43.864;20.136;2024-01-15T07:04:01;195.73;;;71.65;;
55218;SDS011;65463;43.864;20.136;2024-01-15T07:06:28;171.20;;;67.35;;
55218;SDS011;65463;43.864;20.136;2024-01-15T07:08:56;162.73;;;63.20;;
55218;SDS011;65463;43.864;20.136;2024-01-15T07:11:22;160.55;;;59.92;;
55218;SDS011;65463;43.864;20.136;2024-01-15T07:13:49;140.35;;;55.50;;
55218;SDS011;65463;43.864;20.136;2024-01-15T07:16:15;138.27;;;54.15;;
55218;SDS011;65463;43.864;20.136;2024-01-15T07:18:41;123.47;;;50.35;;
55218;SDS011;65463;43.864;20.136;2024-01-15T07:21:07;117.57;;;49.30;;
55218;SDS011;65463;43.864;20.136;2024-01-15T07:23:34;119.85;;;48.67;;
55218;SDS011;65463;43.864;20.136;2024-01-15T07:26:00;114.25;;;48.58;;
55218;SDS011;65463;43.864;20.136;2024-01-15T07:28:28;113.10;;;49.97;;
55218;SDS011;65463;43.864;20.136;2024-01-15T07:30:57;124.57;;;52.33;;
55218;SDS011;65463;43.864;20.136;2024-01-15T07:33:26;124.10;;;51.75;;
55218;SDS011;65463;43.864;20.136;2024-01-15T07:35:52;129.20;;;53.13;;
55218;SDS011;65463;43.864;20.136;2024-01-15T07:38:18;124.25;;;51.60;;
55218;SDS011;65463;43.864;20.136;2024-01-15T07:40:45;118.10;;;49.13;;
55218;SDS011;65463;43.864;20.136;2024-01-15T07:43:14;117.55;;;50.97;;
55218;SDS011;65463;43.864;20.136;2024-01-15T07:45:40;127.45;;;53.75;;
55218;SDS011;65463;43.864;20.136;2024-01-15T07:48:07;120.90;;;52.65;;
55218;SDS011;65463;43.864;20.136;2024-01-15T07:50:33;111.50;;;48.30;;
55218;SDS011;65463;43.864;20.136;2024-01-15T07:53:04;107.18;;;47.78;;
55218;SDS011;65463;43.864;20.136;2024-01-15T07:55:30;125.03;;;53.10;;
55218;SDS011;65463;43.864;20.136;2024-01-15T07:57:57;120.47;;;52.75;;
55218;SDS011;65463;43.864;20.136;2024-01-15T08:00:27;117.03;;;48.78;;
55218;SDS011;65463;43.864;20.136;2024-01-15T08:02:53;116.45;;;50.65;;
55218;SDS011;65463;43.864;20.136;2024-01-15T08:05:19;120.40;;;50.60;;
55218;SDS011;65463;43.864;20.136;2024-01-15T08:07:46;114.32;;;48.97;;
55218;SDS011;65463;43.864;20.136;2024-01-15T08:10:12;117.63;;;51.30;;
55218;SDS011;65463;43.864;20.136;2024-01-15T08:12:39;119.30;;;51.28;;
55218;SDS011;65463;43.864;20.136;2024-01-15T08:15:05;118.63;;;49.90;;
55218;SDS011;65463;43.864;20.136;2024-01-15T08:17:31;132.13;;;55.33;;
55218;SDS011;65463;43.864;20.136;2024-01-15T08:20:00;115.55;;;50.35;;
55218;SDS011;65463;43.864;20.136;2024-01-15T08:22:26;109.43;;;49.25;;
55218;SDS011;65463;43.864;20.136;2024-01-15T08:24:52;112.05;;;49.15;;
55218;SDS011;65463;43.864;20.136;2024-01-15T08:27:21;118.30;;;52.97;;
55218;SDS011;65463;43.864;20.136;2024-01-15T08:29:47;111.22;;;51.45;;
55218;SDS011;65463;43.864;20.136;2024-01-15T08:32:14;112.28;;;51.08;;
55218;SDS011;65463;43.864;20.136;2024-01-15T08:34:40;109.85;;;50.30;;
55218;SDS011;65463;43.864;20.136;2024-01-15T08:37:08;113.47;;;48.83;;
55218;SDS011;65463;43.864;20.136;2024-01-15T08:39:34;114.90;;;51.28;;
55218;SDS011;65463;43.864;20.136;2024-01-15T08:42:03;111.75;;;50.47;;
55218;SDS011;65463;43.864;20.136;2024-01-15T08:44:29;120.13;;;52.45;;
55218;SDS011;65463;43.864;20.136;2024-01-15T08:46:55;141.65;;;57.45;;
55218;SDS011;65463;43.864;20.136;2024-01-15T08:49:22;175.07;;;63.03;;
55218;SDS011;65463;43.864;20.136;2024-01-15T08:51:48;187.98;;;65.07;;
55218;SDS011;65463;43.864;20.136;2024-01-15T08:54:14;172.95;;;61.05;;
55218;SDS011;65463;43.864;20.136;2024-01-15T08:56:40;176.60;;;64.93;;
55218;SDS011;65463;43.864;20.136;2024-01-15T08:59:06;172.52;;;64.30;;
55218;SDS011;65463;43.864;20.136;2024-01-15T09:01:32;164.27;;;64.78;;
55218;SDS011;65463;43.864;20.136;2024-01-15T09:03:58;158.40;;;66.55;;
55218;SDS011;65463;43.864;20.136;2024-01-15T09:06:24;159.23;;;64.65;;
55218;SDS011;65463;43.864;20.136;2024-01-15T09:08:50;157.73;;;61.88;;
55218;SDS011;65463;43.864;20.136;2024-01-15T09:11:16;158.07;;;63.30;;
55218;SDS011;65463;43.864;20.136;2024-01-15T09:13:42;163.95;;;66.80;;
55218;SDS011;65463;43.864;20.136;2024-01-15T09:16:08;164.02;;;68.05;;
55218;SDS011;65463;43.864;20.136;2024-01-15T09:18:34;157.48;;;64.68;;
55218;SDS011;65463;43.864;20.136;2024-01-15T09:21:01;161.40;;;66.00;;
55218;SDS011;65463;43.864;20.136;2024-01-15T09:23:28;168.55;;;69.15;;
55218;SDS011;65463;43.864;20.136;2024-01-15T09:25:54;147.27;;;61.92;;
55218;SDS011;65463;43.864;20.136;2024-01-15T09:28:20;152.50;;;64.25;;
55218;SDS011;65463;43.864;20.136;2024-01-15T09:30:46;150.07;;;61.40;;
55218;SDS011;65463;43.864;20.136;2024-01-15T09:33:12;140.30;;;60.55;;
55218;SDS011;65463;43.864;20.136;2024-01-15T09:35:38;148.52;;;63.30;;
55218;SDS011;65463;43.864;20.136;2024-01-15T09:38:05;121.68;;;54.08;;
55218;SDS011;65463;43.864;20.136;2024-01-15T09:40:31;107.53;;;46.88;;
55218;SDS011;65463;43.864;20.136;2024-01-15T09:43:00;126.18;;;52.00;;
55218;SDS011;65463;43.864;20.136;2024-01-15T09:45:28;136.82;;;53.63;;
55218;SDS011;65463;43.864;20.136;2024-01-15T09:47:54;119.40;;;52.33;;
55218;SDS011;65463;43.864;20.136;2024-01-15T09:50:20;123.15;;;53.28;;
55218;SDS011;65463;43.864;20.136;2024-01-15T09:52:47;139.23;;;56.35;;
55218;SDS011;65463;43.864;20.136;2024-01-15T09:55:18;136.73;;;55.90;;
55218;SDS011;65463;43.864;20.136;2024-01-15T09:57:45;130.30;;;56.03;;
55218;SDS011;65463;43.864;20.136;2024-01-15T10:00:11;154.65;;;64.38;;
55218;SDS011;65463;43.864;20.136;2024-01-15T10:02:38;145.93;;;60.63;;
55218;SDS011;65463;43.864;20.136;2024-01-15T10:05:05;136.43;;;57.33;;
55218;SDS011;65463;43.864;20.136;2024-01-15T10:07:34;134.98;;;57.72;;
55218;SDS011;65463;43.864;20.136;2024-01-15T10:10:01;132.23;;;55.78;;
55218;SDS011;65463;43.864;20.136;2024-01-15T10:12:32;126.88;;;55.55;;
55218;SDS011;65463;43.864;20.136;2024-01-15T10:14:59;134.52;;;55.33;;
55218;SDS011;65463;43.864;20.136;2024-01-15T10:17:25;134.30;;;55.05;;
55218;SDS011;65463;43.864;20.136;2024-01-15T10:19:59;125.13;;;55.97;;
55218;SDS011;65463;43.864;20.136;2024-01-15T10:22:26;126.72;;;52.95;;
55218;SDS011;65463;43.864;20.136;2024-01-15T10:24:52;122.22;;;53.55;;
55218;SDS011;65463;43.864;20.136;2024-01-15T10:27:18;126.15;;;51.70;;
55218;SDS011;65463;43.864;20.136;2024-01-15T10:29:44;124.60;;;52.38;;
55218;SDS011;65463;43.864;20.136;2024-01-15T10:32:11;124.75;;;52.30;;
55218;SDS011;65463;43.864;20.136;2024-01-15T10:34:39;103.57;;;46.72;;
55218;SDS011;65463;43.864;20.136;2024-01-15T10:37:09;109.03;;;49.17;;
55218;SDS011;65463;43.864;20.136;2024-01-15T10:39:35;112.57;;;49.92;;
55218;SDS011;65463;43.864;20.136;2024-01-15T10:42:02;108.65;;;49.20;;
55218;SDS011;65463;43.864;20.136;2024-01-15T10:44:28;114.57;;;49.50;;
55218;SDS011;65463;43.864;20.136;2024-01-15T10:46:55;113.20;;;49.22;;
55218;SDS011;65463;43.864;20.136;2024-01-15T10:49:22;104.88;;;48.67;;
55218;SDS011;65463;43.864;20.136;2024-01-15T10:51:51;107.38;;;48.53;;
55218;SDS011;65463;43.864;20.136;2024-01-15T10:54:18;108.47;;;49.90;;
55218;SDS011;65463;43.864;20.136;2024-01-15T10:56:45;119.35;;;52.95;;
55218;SDS011;65463;43.864;20.136;2024-01-15T10:59:11;108.78;;;47.63;;
55218;SDS011;65463;43.864;20.136;2024-01-15T11:01:38;99.72;;;46.42;;
55218;SDS011;65463;43.864;20.136;2024-01-15T11:04:05;94.03;;;43.58;;
55218;SDS011;65463;43.864;20.136;2024-01-15T11:06:40;102.35;;;47.53;;
55218;SDS011;65463;43.864;20.136;2024-01-15T11:09:07;98.60;;;45.88;;
55218;SDS011;65463;43.864;20.136;2024-01-15T11:11:40;112.32;;;50.97;;
55218;SDS011;65463;43.864;20.136;2024-01-15T11:14:06;127.55;;;56.83;;
55218;SDS011;65463;43.864;20.136;2024-01-15T11:19:17;126.40;;;56.22;;
55218;SDS011;65463;43.864;20.136;2024-01-15T11:21:44;121.90;;;53.60;;
55218;SDS011;65463;43.864;20.136;2024-01-15T11:24:10;127.75;;;55.65;;
55218;SDS011;65463;43.864;20.136;2024-01-15T11:26:57;106.03;;;49.95;;
55218;SDS011;65463;43.864;20.136;2024-01-15T11:34:21;113.10;;;51.47;;
55218;SDS011;65463;43.864;20.136;2024-01-15T11:37:11;103.97;;;49.05;;
55218;SDS011;65463;43.864;20.136;2024-01-15T11:39:44;120.20;;;54.20;;
55218;SDS011;65463;43.864;20.136;2024-01-15T11:42:14;105.82;;;49.55;;
55218;SDS011;65463;43.864;20.136;2024-01-15T11:44:41;107.13;;;49.15;;
55218;SDS011;65463;43.864;20.136;2024-01-15T11:47:10;107.15;;;50.13;;
55218;SDS011;65463;43.864;20.136;2024-01-15T11:52:23;114.85;;;51.28;;
55218;SDS011;65463;43.864;20.136;2024-01-15T11:55:34;119.18;;;52.67;;
55218;SDS011;65463;43.864;20.136;2024-01-15T11:57:44;114.30;;;51.75;;
55218;SDS011;65463;43.864;20.136;2024-01-15T12:00:11;116.18;;;50.85;;
55218;SDS011;65463;43.864;20.136;2024-01-15T12:02:41;116.30;;;52.58;;
55218;SDS011;65463;43.864;20.136;2024-01-15T12:05:11;196.20;;;76.28;;
55218;SDS011;65463;43.864;20.136;2024-01-15T12:07:41;236.55;;;82.97;;
55218;SDS011;65463;43.864;20.136;2024-01-15T12:10:08;265.52;;;88.65;;
55218;SDS011;65463;43.864;20.136;2024-01-15T12:15:16;454.70;;;130.90;;
55218;SDS011;65463;43.864;20.136;2024-01-15T12:17:45;318.98;;;104.30;;
55218;SDS011;65463;43.864;20.136;2024-01-15T12:20:15;112.22;;;53.42;;
55218;SDS011;65463;43.864;20.136;2024-01-15T12:22:43;168.57;;;74.43;;
55218;SDS011;65463;43.864;20.136;2024-01-15T12:25:09;145.07;;;62.92;;
55218;SDS011;65463;43.864;20.136;2024-01-15T12:27:36;150.30;;;65.25;;
55218;SDS011;65463;43.864;20.136;2024-01-15T12:30:03;130.73;;;59.70;;
55218;SDS011;65463;43.864;20.136;2024-01-15T12:32:32;130.48;;;58.30;;
55218;SDS011;65463;43.864;20.136;2024-01-15T12:34:58;127.47;;;56.70;;
55218;SDS011;65463;43.864;20.136;2024-01-15T12:37:26;134.27;;;60.75;;
55218;SDS011;65463;43.864;20.136;2024-01-15T12:39:52;121.03;;;56.42;;
55218;SDS011;65463;43.864;20.136;2024-01-15T12:42:20;114.68;;;53.92;;
55218;SDS011;65463;43.864;20.136;2024-01-15T12:44:47;108.38;;;50.50;;
55218;SDS011;65463;43.864;20.136;2024-01-15T12:47:13;114.93;;;51.53;;
55218;SDS011;65463;43.864;20.136;2024-01-15T12:49:42;116.30;;;50.20;;
55218;SDS011;65463;43.864;20.136;2024-01-15T12:52:11;117.55;;;51.60;;
55218;SDS011;65463;43.864;20.136;2024-01-15T12:54:37;117.50;;;50.95;;
55218;SDS011;65463;43.864;20.136;2024-01-15T12:57:06;119.70;;;52.88;;
55218;SDS011;65463;43.864;20.136;2024-01-15T12:59:32;125.22;;;50.83;;
55218;SDS011;65463;43.864;20.136;2024-01-15T13:01:59;123.10;;;53.90;;
55218;SDS011;65463;43.864;20.136;2024-01-15T13:04:25;159.35;;;58.28;;
55218;SDS011;65463;43.864;20.136;2024-01-15T13:06:51;173.13;;;63.95;;
55218;SDS011;65463;43.864;20.136;2024-01-15T13:09:18;206.05;;;64.82;;
55218;SDS011;65463;43.864;20.136;2024-01-15T13:11:44;112.90;;;48.90;;
55218;SDS011;65463;43.864;20.136;2024-01-15T13:14:11;108.35;;;46.28;;
55218;SDS011;65463;43.864;20.136;2024-01-15T13:16:38;96.72;;;43.10;;
55218;SDS011;65463;43.864;20.136;2024-01-15T13:19:04;122.10;;;51.90;;
55218;SDS011;65463;43.864;20.136;2024-01-15T13:21:31;119.97;;;53.42;;
55218;SDS011;65463;43.864;20.136;2024-01-15T13:23:58;115.65;;;52.92;;
55218;SDS011;65463;43.864;20.136;2024-01-15T13:26:24;113.32;;;51.25;;
55218;SDS011;65463;43.864;20.136;2024-01-15T13:28:50;121.60;;;52.63;;
55218;SDS011;65463;43.864;20.136;2024-01-15T13:31:19;111.75;;;51.03;;
55218;SDS011;65463;43.864;20.136;2024-01-15T13:33:45;120.30;;;52.92;;
55218;SDS011;65463;43.864;20.136;2024-01-15T13:36:11;115.30;;;50.75;;
55218;SDS011;65463;43.864;20.136;2024-01-15T13:38:37;119.22;;;51.90;;
55218;SDS011;65463;43.864;20.136;2024-01-15T13:41:04;117.50;;;53.30;;
55218;SDS011;65463;43.864;20.136;2024-01-15T13:43:31;111.78;;;52.85;;
55218;SDS011;65463;43.864;20.136;2024-01-15T13:45:58;115.10;;;51.72;;
55218;SDS011;65463;43.864;20.136;2024-01-15T13:48:24;127.72;;;57.33;;
55218;SDS011;65463;43.864;20.136;2024-01-15T13:50:51;135.45;;;58.10;;
55218;SDS011;65463;43.864;20.136;2024-01-15T13:53:17;129.48;;;59.13;;
55218;SDS011;65463;43.864;20.136;2024-01-15T13:55:44;126.47;;;56.55;;
55218;SDS011;65463;43.864;20.136;2024-01-15T13:58:10;116.63;;;52.30;;
55218;SDS011;65463;43.864;20.136;2024-01-15T14:00:38;119.00;;;52.72;;
55218;SDS011;65463;43.864;20.136;2024-01-15T14:03:13;130.98;;;55.95;;
55218;SDS011;65463;43.864;20.136;2024-01-15T14:05:40;128.82;;;56.33;;
55218;SDS011;65463;43.864;20.136;2024-01-15T14:08:06;121.57;;;53.33;;